Time;durP1;ratioP1;P1;durP2;ratioP2;P2;SDS_P1;SDS_P2;PMS_P1;PMS_P2;Temp;Humidity;BMP_temperature;BMP_pressure;BME280_temperature;BME280_humidity;BME280_pressure;Samples;Min_cycle;Max_cycle;Signal;HPM_P1;HPM_P2
2021/11/06 00:00:20;;;;;;;4.30;3.00;;;7.20;99.90;;;;;;5071315;28;20044;-84
2021/11/06 00:02:47;;;;;;;6.85;3.50;;;7.20;99.90;;;;;;5067557;28;20031;-85
2021/11/06 00:05:15;;;;;;;4.47;2.97;;;7.20;99.90;;;;;;5075597;28;20043;-85
2021/11/06 00:07:41;;;;;;;6.22;3.35;;;7.20;99.90;;;;;;5083310;28;20027;-85
2021/11/06 00:10:09;;;;;;;5.78;3.55;;;7.10;99.90;;;;;;5070055;28;20120;-85
2021/11/06 00:12:38;;;;;;;8.27;3.90;;;7.10;99.90;;;;;;5075029;28;20040;-85
2021/11/06 00:15:06;;;;;;;6.30;3.70;;;7.10;99.90;;;;;;5060575;28;20480;-84
2021/11/06 00:17:33;;;;;;;8.18;5.22;;;7.10;99.90;;;;;;5071763;28;20139;-85
2021/11/06 00:19:59;;;;;;;7.07;3.97;;;7.10;99.90;;;;;;5061274;28;20468;-85
2021/11/06 00:22:25;;;;;;;7.65;4.28;;;7.00;99.90;;;;;;5065340;28;20040;-85
2021/11/06 00:24:52;;;;;;;10.57;4.72;;;7.00;99.90;;;;;;5091327;28;20114;-85
2021/11/06 00:27:18;;;;;;;8.75;5.25;;;7.00;99.90;;;;;;5057828;28;20048;-85
2021/11/06 00:29:44;;;;;;;7.07;4.85;;;7.00;99.90;;;;;;5093207;28;20032;-85
2021/11/06 00:32:11;;;;;;;7.80;4.75;;;6.90;99.90;;;;;;5075187;28;20036;-85
2021/11/06 00:34:37;;;;;;;11.23;5.55;;;6.90;99.90;;;;;;5069473;28;20102;-85
2021/11/06 00:37:04;;;;;;;7.85;5.55;;;6.90;99.90;;;;;;5093430;28;20036;-85
2021/11/06 00:39:31;;;;;;;8.65;4.85;;;6.80;99.90;;;;;;5074485;28;20119;-84
2021/11/06 00:41:58;;;;;;;8.93;5.07;;;6.80;99.90;;;;;;5074961;28;20036;-86
2021/11/06 00:44:24;;;;;;;9.43;5.20;;;6.80;99.90;;;;;;5074532;28;20036;-86
2021/11/06 00:46:51;;;;;;;8.40;5.40;;;6.90;99.90;;;;;;5075190;28;20036;-85
2021/11/06 00:49:19;;;;;;;9.05;4.93;;;6.90;99.90;;;;;;5087503;28;20048;-85
2021/11/06 00:51:46;;;;;;;8.40;5.30;;;6.90;99.90;;;;;;5075137;28;20036;-85
2021/11/06 00:54:12;;;;;;;8.35;5.78;;;6.90;99.90;;;;;;5074633;28;20032;-84
2021/11/06 00:56:38;;;;;;;7.45;5.43;;;6.90;99.90;;;;;;5063365;28;20041;-85
2021/11/06 00:59:04;;;;;;;8.93;5.32;;;6.90;99.90;;;;;;5075486;28;20029;-85
2021/11/06 01:01:32;;;;;;;8.43;5.13;;;6.90;99.90;;;;;;5055763;28;20040;-85
2021/11/06 01:04:01;;;;;;;9.02;5.97;;;6.90;99.90;;;;;;5066215;28;20040;-86
2021/11/06 01:06:28;;;;;;;8.38;6.38;;;6.90;99.90;;;;;;5074636;28;20117;-84
2021/11/06 01:08:54;;;;;;;10.23;6.68;;;6.90;99.90;;;;;;5071436;28;20032;-86
2021/11/06 01:11:21;;;;;;;8.02;6.03;;;6.90;99.90;;;;;;5066159;28;20032;-85
2021/11/06 01:13:48;;;;;;;8.55;5.57;;;6.90;99.90;;;;;;5091954;28;20039;-84
2021/11/06 01:16:15;;;;;;;10.20;6.43;;;6.90;99.90;;;;;;5075013;28;20061;-86
2021/11/06 01:18:41;;;;;;;9.77;7.20;;;6.90;99.90;;;;;;5049544;28;20067;-86
2021/11/06 01:21:08;;;;;;;10.52;7.70;;;7.00;99.90;;;;;;5034366;28;20705;-84
2021/11/06 01:23:34;;;;;;;10.25;7.95;;;7.00;99.90;;;;;;5071094;28;20472;-85
2021/11/06 01:26:02;;;;;;;10.57;8.13;;;7.00;99.90;;;;;;5069656;28;20049;-85
2021/11/06 01:28:29;;;;;;;12.88;8.43;;;7.00;99.90;;;;;;5033471;28;20041;-85
2021/11/06 01:30:55;;;;;;;10.88;8.52;;;7.00;99.90;;;;;;5035313;28;20040;-85
2021/11/06 01:33:23;;;;;;;10.82;7.80;;;7.00;99.90;;;;;;5050409;28;20149;-85
2021/11/06 01:35:49;;;;;;;10.50;8.52;;;7.10;99.90;;;;;;5052256;28;20029;-84
2021/11/06 01:38:16;;;;;;;10.60;8.30;;;7.10;99.90;;;;;;5044794;28;20044;-85
2021/11/06 01:40:43;;;;;;;11.40;7.93;;;7.10;99.90;;;;;;5052994;28;20040;-84
2021/11/06 01:43:09;;;;;;;11.90;7.97;;;7.10;99.90;;;;;;5057277;28;20059;-84
2021/11/06 01:45:35;;;;;;;12.48;8.60;;;7.10;99.90;;;;;;5057423;28;20024;-84
2021/11/06 01:48:01;;;;;;;12.25;8.63;;;7.10;99.90;;;;;;5075378;28;20425;-85
2021/11/06 01:50:27;;;;;;;12.57;9.30;;;7.10;99.90;;;;;;5075211;28;20374;-85
2021/11/06 01:52:54;;;;;;;12.60;7.90;;;7.10;99.90;;;;;;5056750;28;20032;-85
2021/11/06 01:55:21;;;;;;;13.25;9.30;;;7.10;99.90;;;;;;5056555;28;20043;-84
2021/11/06 01:57:48;;;;;;;12.48;8.48;;;7.10;99.90;;;;;;5048266;28;20021;-84
2021/11/06 02:00:27;;;;;;;15.70;9.85;;;7.10;99.90;;;;;;5056532;28;20024;-84
2021/11/06 02:02:53;;;;;;;11.75;9.13;;;7.20;99.90;;;;;;5074419;28;20032;-84
2021/11/06 02:05:20;;;;;;;10.70;8.48;;;7.20;99.90;;;;;;5056397;28;20040;-84
2021/11/06 02:07:47;;;;;;;15.55;7.80;;;7.20;99.90;;;;;;5074751;28;20056;-84
2021/11/06 02:10:14;;;;;;;13.10;8.45;;;7.20;99.90;;;;;;5057274;28;20119;-84
2021/11/06 02:12:42;;;;;;;15.05;8.57;;;7.20;99.90;;;;;;5056201;28;20029;-83
2021/11/06 02:15:10;;;;;;;13.88;8.73;;;7.20;99.90;;;;;;5055797;28;20047;-83
2021/11/06 02:17:37;;;;;;;16.40;10.05;;;7.20;99.90;;;;;;5075285;28;20024;-84
2021/11/06 02:20:05;;;;;;;12.98;8.52;;;7.20;99.90;;;;;;5075938;28;20085;-84
2021/11/06 02:22:32;;;;;;;13.63;8.73;;;7.20;99.90;;;;;;5075660;28;20062;-84
2021/11/06 02:24:59;;;;;;;15.02;9.38;;;7.30;99.90;;;;;;5075732;28;20480;-85
2021/11/06 02:27:25;;;;;;;13.23;8.27;;;7.30;99.90;;;;;;5094454;28;20487;-84
2021/11/06 02:29:51;;;;;;;15.13;8.98;;;7.30;99.90;;;;;;5075301;28;20510;-84
2021/11/06 02:32:18;;;;;;;13.75;8.88;;;7.30;99.90;;;;;;5072973;28;20036;-84
2021/11/06 02:34:44;;;;;;;15.52;8.60;;;7.30;99.90;;;;;;5075269;28;20036;-84
2021/11/06 02:37:10;;;;;;;13.65;7.80;;;7.30;99.90;;;;;;5075379;28;20119;-84
2021/11/06 02:39:36;;;;;;;19.13;9.75;;;7.30;99.90;;;;;;5075495;28;20024;-84
2021/11/06 02:42:09;;;;;;;20.25;9.55;;;7.30;99.90;;;;;;5075726;28;20039;-85
2021/11/06 02:44:36;;;;;;;17.73;9.77;;;7.30;99.90;;;;;;5075566;28;20464;-83
2021/11/06 02:47:03;;;;;;;25.90;12.50;;;7.30;99.90;;;;;;5075413;28;20032;-83
2021/11/06 02:49:29;;;;;;;23.40;10.90;;;7.30;99.90;;;;;;5075432;28;20020;-82
2021/11/06 02:51:55;;;;;;;23.80;11.80;;;7.30;99.90;;;;;;5075576;28;20034;-82
2021/11/06 02:54:21;;;;;;;31.55;12.95;;;7.30;99.90;;;;;;5075155;28;20120;-85
2021/11/06 02:56:48;;;;;;;25.92;13.18;;;7.30;99.90;;;;;;5075404;28;20032;-85
2021/11/06 02:59:14;;;;;;;23.73;12.25;;;7.30;99.90;;;;;;5074886;28;20030;-85
2021/11/06 03:01:40;;;;;;;31.30;14.15;;;7.30;99.90;;;;;;5075383;28;20062;-85
2021/11/06 03:04:12;;;;;;;27.60;13.07;;;7.30;99.90;;;;;;5094159;28;20067;-85
2021/11/06 03:06:39;;;;;;;28.35;13.32;;;7.30;99.90;;;;;;5075710;28;20044;-85
2021/11/06 03:09:06;;;;;;;29.92;13.48;;;7.30;99.90;;;;;;5075831;28;20037;-85
2021/11/06 03:11:34;;;;;;;31.27;14.63;;;7.30;99.90;;;;;;5059032;28;20036;-83
2021/11/06 03:14:02;;;;;;;31.65;14.48;;;7.30;99.90;;;;;;5074785;28;20094;-82
2021/11/06 03:16:28;;;;;;;27.27;13.30;;;7.30;99.90;;;;;;5075057;28;20094;-84
2021/11/06 03:18:54;;;;;;;25.83;13.13;;;7.30;99.90;;;;;;5075588;28;20036;-84
2021/11/06 03:21:21;;;;;;;28.33;13.65;;;7.30;99.90;;;;;;5072370;28;20059;-85
2021/11/06 03:23:47;;;;;;;25.10;13.15;;;7.30;99.90;;;;;;5074859;28;20040;-86
2021/11/06 03:26:13;;;;;;;27.05;14.80;;;7.30;99.90;;;;;;5074097;28;20028;-80
2021/11/06 03:28:40;;;;;;;26.40;14.45;;;7.30;99.90;;;;;;5092500;28;20079;-83
2021/11/06 03:31:06;;;;;;;26.52;13.13;;;7.30;99.90;;;;;;5074919;28;20444;-83
2021/11/06 03:33:33;;;;;;;27.10;13.57;;;7.30;99.90;;;;;;5058829;28;20055;-83
2021/11/06 03:35:59;;;;;;;23.25;12.40;;;7.30;99.90;;;;;;5072022;28;20492;-83
2021/11/06 03:38:26;;;;;;;22.05;11.23;;;7.40;99.90;;;;;;5064345;28;20035;-83
2021/11/06 03:40:52;;;;;;;22.50;10.55;;;7.40;99.90;;;;;;5062137;28;20087;-84
2021/11/06 03:43:18;;;;;;;24.98;13.32;;;7.40;99.90;;;;;;5072034;28;20036;-83
2021/11/06 03:45:45;;;;;;;23.55;12.43;;;7.40;99.90;;;;;;5075496;28;20439;-84
2021/11/06 03:48:11;;;;;;;21.73;11.63;;;7.40;99.90;;;;;;5075123;28;20468;-84
2021/11/06 03:50:37;;;;;;;26.05;12.95;;;7.40;99.90;;;;;;5072029;28;20039;-84
2021/11/06 03:53:03;;;;;;;20.48;10.93;;;7.40;99.90;;;;;;5055747;28;20032;-84
2021/11/06 03:55:29;;;;;;;20.42;11.60;;;7.40;99.90;;;;;;5073306;28;20881;-84
2021/11/06 03:57:56;;;;;;;18.70;9.85;;;7.50;99.90;;;;;;5069933;28;20036;-85
2021/11/06 04:00:22;;;;;;;22.35;12.35;;;7.50;99.90;;;;;;5064196;28;20028;-84
2021/11/06 04:02:49;;;;;;;18.13;9.95;;;7.50;99.90;;;;;;5092977;28;20094;-84
2021/11/06 04:05:16;;;;;;;21.08;11.77;;;7.50;99.90;;;;;;5075363;28;20096;-84
2021/11/06 04:07:43;;;;;;;23.10;11.88;;;7.50;99.90;;;;;;5074824;28;20061;-84
2021/11/06 04:10:11;;;;;;;21.13;11.77;;;7.50;99.90;;;;;;5093109;28;20028;-84
2021/11/06 04:12:37;;;;;;;19.00;10.50;;;7.50;99.90;;;;;;5075497;28;20038;-84
2021/11/06 04:15:06;;;;;;;18.15;9.50;;;7.50;99.90;;;;;;5060406;28;20037;-84
2021/11/06 04:17:32;;;;;;;20.10;11.85;;;7.50;99.90;;;;;;5037039;28;20160;-84
2021/11/06 04:19:58;;;;;;;19.02;11.80;;;7.50;99.90;;;;;;5072897;28;20115;-84
2021/11/06 04:22:24;;;;;;;20.30;12.02;;;7.50;99.90;;;;;;5072464;28;20535;-84
2021/11/06 04:24:50;;;;;;;19.98;11.13;;;7.50;99.90;;;;;;5054534;28;20037;-84
2021/11/06 04:27:16;;;;;;;24.02;12.80;;;7.50;99.90;;;;;;5054702;28;20040;-84
2021/11/06 04:29:42;;;;;;;20.80;11.55;;;7.50;99.90;;;;;;5054813;28;20028;-83
2021/11/06 04:32:08;;;;;;;18.42;10.85;;;7.50;99.90;;;;;;5054777;28;20468;-84
2021/11/06 04:34:34;;;;;;;21.27;12.85;;;7.50;99.90;;;;;;5054723;28;20101;-84
2021/11/06 04:37:00;;;;;;;22.65;11.05;;;7.50;99.90;;;;;;5054346;28;20543;-84
2021/11/06 04:39:26;;;;;;;25.05;13.00;;;7.50;99.90;;;;;;5054822;28;20052;-84
2021/11/06 04:41:52;;;;;;;22.20;13.23;;;7.50;99.90;;;;;;5054998;28;20369;-84
2021/11/06 04:44:17;;;;;;;23.83;12.90;;;7.50;99.90;;;;;;5072975;28;20115;-84
2021/11/06 04:46:43;;;;;;;22.38;13.35;;;7.40;99.90;;;;;;5054561;28;20082;-84
2021/11/06 04:49:09;;;;;;;23.00;13.32;;;7.40;99.90;;;;;;5074240;28;20082;-84
2021/11/06 04:51:35;;;;;;;23.60;13.75;;;7.40;99.90;;;;;;5058543;28;20033;-84
2021/11/06 04:54:01;;;;;;;23.63;13.75;;;7.40;99.90;;;;;;5058689;28;20105;-84
2021/11/06 04:56:27;;;;;;;22.55;12.68;;;7.50;99.90;;;;;;5058165;28;20036;-83
2021/11/06 04:58:53;;;;;;;19.40;11.30;;;7.50;99.90;;;;;;5076164;28;20370;-84
2021/11/06 05:01:19;;;;;;;22.85;13.43;;;7.50;99.90;;;;;;5057955;28;20082;-84
2021/11/06 05:03:45;;;;;;;23.80;12.80;;;7.50;99.90;;;;;;5076327;28;20028;-84
2021/11/06 05:06:11;;;;;;;21.85;13.40;;;7.50;99.90;;;;;;5054569;28;20055;-84
2021/11/06 05:08:37;;;;;;;22.05;12.93;;;7.50;99.90;;;;;;5057957;28;20508;-84
2021/11/06 05:11:04;;;;;;;22.58;12.63;;;7.50;99.90;;;;;;5076376;28;20048;-84
2021/11/06 05:13:30;;;;;;;18.50;12.00;;;7.50;99.90;;;;;;5058149;28;20028;-84
2021/11/06 05:15:59;;;;;;;20.92;12.20;;;7.50;99.90;;;;;;5058031;28;20047;-84
2021/11/06 05:18:26;;;;;;;20.55;13.00;;;7.50;99.90;;;;;;5057628;28;20037;-84
2021/11/06 05:20:53;;;;;;;18.50;11.20;;;7.50;99.90;;;;;;5075724;28;20040;-84
2021/11/06 05:23:19;;;;;;;19.50;12.30;;;7.50;99.90;;;;;;5058128;28;20132;-84
2021/11/06 05:25:46;;;;;;;19.20;12.00;;;7.60;99.90;;;;;;5057896;28;20033;-84
2021/11/06 05:28:14;;;;;;;18.45;11.68;;;7.60;99.90;;;;;;5057890;28;20377;-84
2021/11/06 05:30:41;;;;;;;24.73;13.73;;;7.50;99.90;;;;;;5057563;28;20067;-84
2021/11/06 05:33:08;;;;;;;21.75;13.45;;;7.50;99.90;;;;;;5057877;28;20028;-84
2021/11/06 05:35:35;;;;;;;21.63;14.15;;;7.50;99.90;;;;;;5057691;28;20174;-84
2021/11/06 05:38:01;;;;;;;24.05;14.48;;;7.50;99.90;;;;;;5057692;28;20033;-83
2021/11/06 05:40:27;;;;;;;19.25;13.55;;;7.50;99.90;;;;;;5075218;28;20431;-84
2021/11/06 05:42:53;;;;;;;22.02;12.88;;;7.50;99.90;;;;;;5057424;28;20086;-84
2021/11/06 05:45:19;;;;;;;19.88;13.23;;;7.40;99.90;;;;;;5075400;28;20499;-84
2021/11/06 05:47:45;;;;;;;20.80;13.25;;;7.40;99.90;;;;;;5057401;28;20455;-83
2021/11/06 05:50:14;;;;;;;18.88;13.38;;;7.40;99.90;;;;;;5075148;28;20075;-84
2021/11/06 05:52:41;;;;;;;17.92;12.18;;;7.40;99.90;;;;;;5057358;28;20116;-84
2021/11/06 05:55:09;;;;;;;20.38;13.60;;;7.40;99.90;;;;;;5057244;28;20112;-84
2021/11/06 05:57:36;;;;;;;20.98;13.02;;;7.40;99.90;;;;;;5056976;28;20385;-84
2021/11/06 06:00:20;;;;;;;21.38;13.43;;;7.40;99.90;;;;;;5056803;28;20034;-84
2021/11/06 06:02:46;;;;;;;;;;;7.50;99.90;;;;;;5057458;28;20044;-83
2021/11/06 06:05:13;;;;;;;18.58;12.73;;;7.50;99.90;;;;;;5057037;28;19909;-84
2021/11/06 06:07:42;;;;;;;20.77;13.23;;;7.40;99.90;;;;;;5056957;28;20032;-84
2021/11/06 06:10:11;;;;;;;24.77;15.85;;;7.40;99.90;;;;;;5056875;28;20040;-84
2021/11/06 06:12:38;;;;;;;21.17;14.38;;;7.50;99.90;;;;;;5074975;28;20561;-84
2021/11/06 06:15:06;;;;;;;22.00;13.95;;;7.50;99.90;;;;;;5057227;28;20476;-84
2021/11/06 06:17:32;;;;;;;20.90;14.82;;;7.50;99.90;;;;;;5075225;28;20048;-84
2021/11/06 06:19:58;;;;;;;21.55;14.55;;;7.50;99.90;;;;;;5076889;28;20032;-84
2021/11/06 06:22:25;;;;;;;20.35;14.00;;;7.50;99.90;;;;;;5076926;28;20028;-84
2021/11/06 06:24:51;;;;;;;20.65;14.95;;;7.50;99.90;;;;;;5076898;28;20036;-84
2021/11/06 06:27:18;;;;;;;19.98;13.93;;;7.50;99.90;;;;;;5076656;28;20207;-84
2021/11/06 06:29:46;;;;;;;20.20;13.93;;;7.50;99.90;;;;;;5076788;28;20391;-84
2021/11/06 06:32:13;;;;;;;21.05;14.70;;;7.50;99.90;;;;;;5076884;28;20482;-84
2021/11/06 06:34:39;;;;;;;21.50;14.68;;;7.50;99.90;;;;;;5076758;28;20452;-84
2021/11/06 06:37:06;;;;;;;19.73;14.52;;;7.60;99.90;;;;;;5076551;28;20085;-84
2021/11/06 06:39:32;;;;;;;21.30;14.45;;;7.60;99.90;;;;;;5076376;28;20115;-83
2021/11/06 06:41:58;;;;;;;24.95;15.43;;;7.60;99.90;;;;;;5076161;28;20039;-83
2021/11/06 06:44:24;;;;;;;21.63;14.30;;;7.60;99.90;;;;;;5076173;28;20036;-83
2021/11/06 06:46:50;;;;;;;21.30;14.52;;;7.60;99.90;;;;;;5094438;28;20058;-83
2021/11/06 06:49:17;;;;;;;19.85;13.45;;;7.60;99.90;;;;;;5076479;28;20086;-84
2021/11/06 06:51:42;;;;;;;19.70;14.45;;;7.60;99.90;;;;;;5059592;28;20024;-84
2021/11/06 06:54:09;;;;;;;20.60;14.80;;;7.60;99.90;;;;;;5076338;28;20457;-84
2021/11/06 06:56:35;;;;;;;19.38;14.32;;;7.60;99.90;;;;;;5076059;28;20131;-84
2021/11/06 06:59:02;;;;;;;22.88;14.82;;;7.50;99.90;;;;;;5075319;28;20040;-85
2021/11/06 07:01:30;;;;;;;20.50;15.10;;;7.50;99.90;;;;;;5073895;28;20036;-83
2021/11/06 07:03:56;;;;;;;21.05;15.57;;;7.50;99.90;;;;;;5074082;28;20421;-84
2021/11/06 07:06:22;;;;;;;21.73;14.95;;;7.60;99.90;;;;;;5073848;28;20039;-84
2021/11/06 07:08:48;;;;;;;21.73;15.10;;;7.60;99.90;;;;;;5074076;28;20506;-84
2021/11/06 07:11:16;;;;;;;22.52;16.13;;;7.60;99.90;;;;;;5073344;28;20070;-85
2021/11/06 07:13:43;;;;;;;21.75;14.95;;;7.60;99.90;;;;;;5073996;28;20047;-84
2021/11/06 07:16:11;;;;;;;21.33;14.30;;;7.60;99.90;;;;;;5073941;28;20694;-84
2021/11/06 07:18:38;;;;;;;21.98;16.20;;;7.60;99.90;;;;;;5062557;28;20503;-83
2021/11/06 07:21:04;;;;;;;22.65;15.07;;;7.70;99.90;;;;;;5068432;28;20039;-84
2021/11/06 07:23:30;;;;;;;21.48;15.68;;;7.70;99.90;;;;;;5091611;28;20032;-85
2021/11/06 07:26:00;;;;;;;21.88;14.88;;;7.70;99.90;;;;;;5067594;28;20488;-84
2021/11/06 07:28:27;;;;;;;21.40;15.68;;;7.70;99.90;;;;;;5062779;28;20032;-85
2021/11/06 07:30:54;;;;;;;20.90;14.73;;;7.70;99.90;;;;;;5091549;28;20051;-85
2021/11/06 07:33:21;;;;;;;21.23;14.88;;;7.70;99.90;;;;;;5092170;28;20391;-85
2021/11/06 07:35:47;;;;;;;21.77;15.20;;;7.70;99.90;;;;;;5069511;28;20373;-85
2021/11/06 07:38:13;;;;;;;21.80;15.32;;;7.70;99.90;;;;;;5061608;28;20090;-84
2021/11/06 07:40:40;;;;;;;22.33;15.65;;;7.80;99.90;;;;;;5062437;28;20036;-84
2021/11/06 07:43:07;;;;;;;23.58;16.60;;;7.80;99.90;;;;;;5068695;28;20128;-84
2021/11/06 07:45:34;;;;;;;18.10;13.63;;;7.80;99.90;;;;;;5072433;28;20037;-84
2021/11/06 07:48:01;;;;;;;21.77;15.00;;;7.80;99.90;;;;;;5067915;28;20079;-84
2021/11/06 07:50:28;;;;;;;17.42;13.68;;;7.80;99.90;;;;;;5063160;28;20032;-84
2021/11/06 07:52:54;;;;;;;19.58;13.07;;;7.80;99.90;;;;;;5070222;28;20032;-84
2021/11/06 07:55:21;;;;;;;15.82;11.90;;;7.80;99.90;;;;;;5054246;28;20103;-85
2021/11/06 07:57:48;;;;;;;23.05;15.30;;;7.80;99.90;;;;;;5069333;28;20411;-84
2021/11/06 08:00:18;;;;;;;19.85;14.27;;;7.80;99.90;;;;;;5061636;28;20035;-84
2021/11/06 08:02:45;;;;;;;19.42;14.00;;;7.80;99.90;;;;;;5061844;28;20741;-84
2021/11/06 08:05:14;;;;;;;20.75;13.80;;;7.80;99.90;;;;;;5053354;28;20052;-85
2021/11/06 08:07:42;;;;;;;16.58;12.98;;;7.80;99.90;;;;;;5091596;28;20039;-85
2021/11/06 08:10:11;;;;;;;17.48;13.40;;;7.80;99.90;;;;;;5069854;28;20365;-84
2021/11/06 08:12:39;;;;;;;20.23;14.52;;;7.80;99.90;;;;;;5064158;28;20148;-84
2021/11/06 08:15:07;;;;;;;17.35;13.02;;;7.90;99.90;;;;;;5070003;28;20115;-85
2021/11/06 08:17:33;;;;;;;17.45;13.63;;;7.90;99.90;;;;;;5052861;28;20051;-85
2021/11/06 08:19:59;;;;;;;17.92;13.45;;;8.00;99.90;;;;;;5053512;28;20120;-84
2021/11/06 08:22:25;;;;;;;18.65;13.23;;;8.00;99.90;;;;;;5053809;28;20084;-84
2021/11/06 08:24:51;;;;;;;16.55;12.43;;;8.10;99.90;;;;;;5057244;28;20067;-85
2021/11/06 08:27:18;;;;;;;17.83;13.10;;;8.20;99.90;;;;;;5057370;28;20041;-83
2021/11/06 08:29:44;;;;;;;19.75;13.27;;;8.30;99.90;;;;;;5040390;28;20040;-85
2021/11/06 08:32:10;;;;;;;16.70;12.05;;;8.40;99.90;;;;;;5074898;28;20469;-84
2021/11/06 08:34:36;;;;;;;18.10;13.23;;;8.40;99.90;;;;;;5056621;28;20089;-85
2021/11/06 08:37:01;;;;;;;19.35;13.93;;;8.50;99.90;;;;;;5056885;28;20469;-85
2021/11/06 08:39:28;;;;;;;16.27;12.65;;;8.50;99.90;;;;;;5056998;28;20037;-84
2021/11/06 08:41:58;;;;;;;15.75;12.75;;;8.50;99.90;;;;;;5061098;28;20032;-85
2021/11/06 08:44:25;;;;;;;18.30;14.05;;;8.50;99.90;;;;;;5067399;28;20037;-85
2021/11/06 08:46:55;;;;;;;17.70;12.90;;;8.50;99.90;;;;;;5057424;28;20040;-85
2021/11/06 08:49:23;;;;;;;18.83;13.32;;;8.50;99.90;;;;;;5059901;28;20039;-85
2021/11/06 08:51:58;;;;;;;15.68;10.60;;;8.50;99.90;;;;;;5057322;28;20098;-86
2021/11/06 08:54:30;;;;;;;14.93;11.10;;;8.60;99.90;;;;;;5049632;28;20388;-86
2021/11/06 08:57:04;;;;;;;17.42;11.50;;;8.60;99.90;;;;;;5074930;28;20032;-84
2021/11/06 08:59:40;;;;;;;14.20;10.13;;;8.60;99.90;;;;;;5074735;28;20032;-85
2021/11/06 09:02:11;;;;;;;12.45;9.25;;;8.70;99.90;;;;;;5057075;28;20503;-85
2021/11/06 09:04:38;;;;;;;12.45;8.88;;;8.80;99.90;;;;;;5056830;28;20490;-85
2021/11/06 09:07:17;;;;;;;14.88;9.95;;;8.80;99.90;;;;;;5068310;28;20170;-85
2021/11/06 09:09:48;;;;;;;14.65;9.07;;;8.90;99.90;;;;;;5037191;28;20044;-85
2021/11/06 09:12:20;;;;;;;14.07;9.93;;;9.00;99.90;;;;;;5044246;28;20374;-85
2021/11/06 09:14:56;;;;;;;16.50;10.18;;;9.00;99.90;;;;;;5056639;28;20067;-85
2021/11/06 09:17:35;;;;;;;13.15;9.63;;;9.00;99.90;;;;;;5056180;28;20052;-85
2021/11/06 09:20:07;;;;;;;11.93;9.18;;;9.00;99.90;;;;;;5056750;28;20400;-85
2021/11/06 09:22:35;;;;;;;12.60;9.55;;;9.00;99.90;;;;;;5057363;28;20036;-86
2021/11/06 09:25:01;;;;;;;12.80;9.18;;;9.10;99.90;;;;;;5074448;28;20032;-86
2021/11/06 09:27:37;;;;;;;13.50;11.07;;;9.10;99.90;;;;;;5057029;28;20119;-86
2021/11/06 09:30:09;;;;;;;13.57;9.57;;;9.10;99.90;;;;;;5057306;28;20032;-85
2021/11/06 09:32:42;;;;;;;14.30;9.70;;;9.10;99.90;;;;;;5053837;28;20398;-84
2021/11/06 09:35:12;;;;;;;14.27;9.77;;;9.20;99.90;;;;;;5055873;28;20516;-85
2021/11/06 09:37:44;;;;;;;11.77;9.48;;;9.20;99.90;;;;;;5056230;28;20033;-85
2021/11/06 09:40:11;;;;;;;15.32;10.68;;;9.20;99.90;;;;;;5073862;28;20029;-85
2021/11/06 09:42:41;;;;;;;15.13;10.07;;;9.20;99.90;;;;;;5056381;28;20029;-84
2021/11/06 09:45:11;;;;;;;15.23;9.80;;;9.30;99.90;;;;;;5055947;28;20567;-85
2021/11/06 09:47:42;;;;;;;14.85;9.30;;;9.30;99.90;;;;;;5073982;28;20178;-85
2021/11/06 09:50:17;;;;;;;11.57;9.45;;;9.40;99.90;;;;;;5074431;28;20037;-85
2021/11/06 09:52:51;;;;;;;11.82;8.82;;;9.40;99.90;;;;;;5055982;28;20028;-85
2021/11/06 09:55:26;;;;;;;15.85;8.60;;;9.60;99.90;;;;;;5056285;28;20046;-85
2021/11/06 09:57:59;;;;;;;13.13;9.90;;;9.70;99.90;;;;;;5055661;28;20029;-84
2021/11/06 10:00:28;;;;;;;12.27;9.07;;;9.70;99.90;;;;;;5073795;28;20040;-85
2021/11/06 10:02:58;;;;;;;15.18;9.13;;;9.80;99.90;;;;;;5055530;28;20271;-84
2021/11/06 10:05:47;;;;;;;14.25;10.60;;;9.80;99.90;;;;;;5054698;28;20396;-85
2021/11/06 10:08:39;;;;;;;13.20;9.65;;;9.90;99.90;;;;;;5073329;28;20032;-83
2021/11/06 10:11:18;;;;;;;11.13;8.50;;;9.90;99.90;;;;;;5055153;28;20066;-84
2021/11/06 10:14:10;;;;;;;12.27;9.02;;;10.00;99.90;;;;;;5035141;28;20032;-85
2021/11/06 10:16:43;;;;;;;16.25;8.77;;;10.00;99.90;;;;;;5038268;28;20132;-84
2021/11/06 10:19:18;;;;;;;11.75;8.18;;;10.00;99.90;;;;;;5054456;28;20025;-85
2021/11/06 10:21:52;;;;;;;13.10;8.73;;;10.10;99.90;;;;;;5070658;28;20037;-84
2021/11/06 10:24:39;;;;;;;12.63;8.30;;;10.10;99.90;;;;;;5054707;28;20037;-85
2021/11/06 10:27:38;;;;;;;11.02;8.73;;;10.10;99.90;;;;;;5051295;28;20040;-85
2021/11/06 10:30:39;;;;;;;12.02;7.88;;;10.20;99.90;;;;;;5022848;28;20039;-85
2021/11/06 10:33:13;;;;;;;14.30;7.80;;;10.10;99.90;;;;;;5066523;28;20033;-85
2021/11/06 10:35:51;;;;;;;9.52;6.85;;;10.20;99.90;;;;;;5049244;28;20151;-86
2021/11/06 10:38:23;;;;;;;10.23;7.03;;;10.10;99.90;;;;;;5055084;28;20029;-86
2021/11/06 10:41:08;;;;;;;10.85;7.13;;;10.20;99.90;;;;;;5054581;28;20388;-86
2021/11/06 10:43:37;;;;;;;11.15;7.63;;;10.20;99.90;;;;;;5054658;28;20127;-84
2021/11/06 10:46:10;;;;;;;10.20;7.07;;;10.20;99.90;;;;;;5054639;28;20500;-85
2021/11/06 10:48:46;;;;;;;8.60;6.22;;;10.20;99.90;;;;;;5050087;28;20035;-85
2021/11/06 10:51:13;;;;;;;9.45;7.40;;;10.30;99.90;;;;;;5038374;28;20116;-85
2021/11/06 10:53:48;;;;;;;10.43;7.07;;;10.40;99.90;;;;;;5056297;28;20548;-85
2021/11/06 10:56:23;;;;;;;9.82;6.22;;;10.40;99.90;;;;;;5042370;28;20044;-84
2021/11/06 10:58:54;;;;;;;9.57;6.75;;;10.50;99.90;;;;;;5053994;28;20047;-83
2021/11/06 11:01:33;;;;;;;10.15;7.00;;;10.60;99.90;;;;;;5070896;28;20032;-84
2021/11/06 11:04:08;;;;;;;9.77;6.55;;;10.70;99.90;;;;;;5057280;28;20037;-85
2021/11/06 11:06:44;;;;;;;7.35;5.75;;;10.90;99.90;;;;;;5044631;28;20048;-85
2021/11/06 11:09:26;;;;;;;9.27;6.38;;;11.00;99.90;;;;;;5054591;28;20067;-84
2021/11/06 11:12:02;;;;;;;8.48;5.82;;;11.00;99.90;;;;;;5058122;28;20044;-85
2021/11/06 11:14:31;;;;;;;7.97;5.97;;;11.10;99.90;;;;;;5055590;28;20132;-86
2021/11/06 11:16:59;;;;;;;9.27;6.38;;;11.10;99.90;;;;;;5069185;28;20043;-85
2021/11/06 11:19:41;;;;;;;8.73;5.38;;;11.10;99.90;;;;;;5074475;28;20032;-85
2021/11/06 11:22:26;;;;;;;7.55;5.80;;;11.10;99.90;;;;;;5073619;28;20400;-86
2021/11/06 11:24:58;;;;;;;8.50;6.47;;;11.10;99.90;;;;;;5091899;28;20036;-86
2021/11/06 11:27:27;;;;;;;8.30;6.13;;;11.10;99.90;;;;;;5074953;28;20482;-84
2021/11/06 11:29:55;;;;;;;9.07;5.35;;;11.10;99.90;;;;;;5075766;28;20058;-85
2021/11/06 11:32:21;;;;;;;8.45;6.10;;;11.10;99.90;;;;;;5071322;28;20040;-86
2021/11/06 11:34:49;;;;;;;11.15;5.57;;;11.20;99.90;;;;;;5074654;28;20039;-86
2021/11/06 11:37:17;;;;;;;9.32;6.18;;;11.20;99.90;;;;;;5071086;28;20044;-85
2021/11/06 11:39:45;;;;;;;9.10;5.50;;;11.20;99.90;;;;;;5076515;28;20024;-86
2021/11/06 11:42:45;;;;;;;9.25;5.70;;;11.20;99.90;;;;;;5074312;28;20088;-85
2021/11/06 11:45:27;;;;;;;8.48;5.88;;;11.20;99.90;;;;;;5075238;28;20123;-85
2021/11/06 11:48:12;;;;;;;10.07;6.05;;;11.20;99.90;;;;;;5060485;28;20090;-85
2021/11/06 11:50:42;;;;;;;10.38;6.30;;;11.30;99.90;;;;;;5093606;28;20115;-85
2021/11/06 11:53:25;;;;;;;9.35;6.05;;;11.30;99.90;;;;;;5059083;28;20033;-85
2021/11/06 11:56:05;;;;;;;7.75;5.47;;;11.30;99.90;;;;;;5059757;28;20131;-85
2021/11/06 11:58:41;;;;;;;6.82;5.15;;;11.30;99.90;;;;;;5074937;28;20108;-85
2021/11/06 12:01:18;;;;;;;7.47;4.72;;;11.40;99.90;;;;;;5060350;28;20128;-85
2021/11/06 12:03:49;;;;;;;6.97;5.28;;;11.40;99.90;;;;;;5058726;28;20535;-84
2021/11/06 12:06:24;;;;;;;7.57;4.97;;;11.40;99.90;;;;;;5092847;28;20044;-86
2021/11/06 12:08:53;;;;;;;9.02;6.15;;;11.50;99.90;;;;;;5062479;28;20033;-85
2021/11/06 12:11:23;;;;;;;7.18;5.15;;;11.50;99.90;;;;;;5070992;28;20502;-86
2021/11/06 12:13:57;;;;;;;7.15;5.15;;;11.70;99.90;;;;;;5085256;28;20477;-86
2021/11/06 12:16:41;;;;;;;7.53;5.55;;;12.10;99.90;;;;;;5064813;28;20041;-86
2021/11/06 12:19:07;;;;;;;9.70;5.38;;;12.40;99.90;;;;;;5055205;28;20033;-86
2021/11/06 12:21:37;;;;;;;7.93;5.35;;;12.60;99.90;;;;;;5055212;28;20540;-86
2021/11/06 12:24:09;;;;;;;7.93;5.50;;;12.80;99.90;;;;;;5073104;28;20558;-85
2021/11/06 12:26:58;;;;;;;6.70;4.55;;;12.90;99.90;;;;;;5054983;28;20477;-86
2021/11/06 12:29:49;;;;;;;7.60;5.35;;;13.30;99.90;;;;;;5054967;28;20388;-86
2021/11/06 12:32:18;;;;;;;10.77;5.50;;;13.40;99.90;;;;;;5034536;28;20469;-85
2021/11/06 12:34:52;;;;;;;7.95;5.47;;;13.20;99.90;;;;;;5066659;28;20033;-84
2021/11/06 12:37:39;;;;;;;9.00;5.53;;;13.00;99.90;;;;;;5046698;28;20025;-85
2021/11/06 12:40:22;;;;;;;7.43;4.82;;;12.60;99.90;;;;;;5043799;28;20103;-85
2021/11/06 12:43:05;;;;;;;9.57;5.70;;;12.30;99.90;;;;;;5047045;28;20075;-85
2021/11/06 12:45:33;;;;;;;7.13;5.03;;;12.00;99.90;;;;;;5046842;28;20127;-85
2021/11/06 12:48:06;;;;;;;6.95;5.60;;;11.90;99.90;;;;;;5044371;28;20024;-86
2021/11/06 12:50:36;;;;;;;10.07;6.20;;;11.80;99.90;;;;;;5041094;28;20029;-85
2021/11/06 12:53:09;;;;;;;6.90;5.00;;;11.70;99.90;;;;;;5044842;28;20389;-86